Terminal Aerodrome Forecast
Issued by NWS

Home | Current Version | Previous Version | Text Only | Print | Product List | Glossary On
Versions: 1 2 3 4 5 6 7 8 9 10 11 12 13 14 15 16 17 18 19 20 21
653
FTUS41 KGYX 251732
TAFLEB
TAF
KLEB 251732Z 2518/2618 09008G14KT 5SM -RA SCT030 BKN050
     FM252000 07009G16KT 3SM -RA OVC025
     FM252300 03007KT 3SM -SHRA BR SCT005 OVC012 WS020/10045KT
     FM260200 VRB03KT 2SM RA BR OVC007 WS020/10045KT
     FM261000 36003KT 4SM -RA BR OVC012=

USA.gov is the U.S. government's official web portal to all federal, state and local government web resources and services.